Capitol Logistics 7430

Operating for MZN



KILN
Wilmington Air Park
Wilmington, Ohio
KJFK
John F Kennedy International Airport
New York, New York

Activity Log

Date Flight Route Aircraft Duration
No Flights Yet

Route Details

Aircraft Information
Primary: Boeing 767-300BDSF
Backup: Boeing 757-200SF
Route Data
Distance: 466nm
Duration: 1h 12m
Recm'd Route: APE PSB LVZ LENDY6
Origin Wx: KILN 142054Z AUTO 25007KT 10SM CLR 15/04 A2998 RMK AO2 SLP158 T01500039 56026
Dest. Wx: KJFK 142051Z 20007KT 10SM FEW049 BKN090 BKN110 BKN250 14/09 A2993 RMK AO2 SLP135 T01390094 58023
Notes: